Time;durP1;ratioP1;P1;durP2;ratioP2;P2;SDS_P1;SDS_P2;PMS_P1;PMS_P2;Temp;Humidity;BMP_temperature;BMP_pressure;BME280_temperature;BME280_humidity;BME280_pressure;Samples;Min_cycle;Max_cycle;Signal;HPM_P1;HPM_P2
2021/07/29 04:41:59;;;;;;;9.02;5.55;;;;;;;15.49;82.58;99787.47;4986353;28;106224;-67
2021/07/29 04:44:24;;;;;;;10.30;6.05;;;;;;;15.62;82.61;99791.13;4987952;28;106082;-63
2021/07/29 04:46:50;;;;;;;13.10;6.10;;;;;;;15.73;82.91;99799.34;4984783;28;106326;-63
2021/07/29 04:49:19;;;;;;;13.95;5.75;;;;;;;15.88;82.82;99803.63;4984128;28;107280;-63
2021/07/29 04:51:44;;;;;;;8.93;5.07;;;;;;;16.03;82.74;99803.34;4984782;28;106046;-63
2021/07/29 04:54:09;;;;;;;9.35;5.65;;;;;;;16.18;82.49;99801.22;4985873;28;106082;-63
2021/07/29 04:56:35;;;;;;;7.03;5.35;;;;;;;16.33;82.36;99808.13;4985595;28;106259;-63
2021/07/29 04:59:00;;;;;;;10.55;5.07;;;;;;;16.45;82.05;99808.25;4984351;28;105995;-63
2021/07/29 05:01:26;;;;;;;6.93;5.05;;;;;;;16.58;81.99;99808.16;4984951;28;109504;-63
2021/07/29 05:03:51;;;;;;;10.23;5.47;;;;;;;16.72;81.64;99806.19;4985872;28;106078;-64
2021/07/29 05:06:17;;;;;;;7.68;5.30;;;;;;;16.84;81.55;99809.78;4985610;28;106087;-64
2021/07/29 05:08:43;;;;;;;10.10;5.88;;;;;;;16.98;81.41;99801.66;4984983;28;105799;-63
2021/07/29 05:11:09;;;;;;;10.13;6.10;;;;;;;17.13;81.23;99807.47;4985514;28;105840;-63
2021/07/29 05:13:38;;;;;;;11.18;5.60;;;;;;;17.27;81.34;99797.41;4986056;28;106084;-63
2021/07/29 05:16:05;;;;;;;8.80;5.53;;;;;;;17.41;81.07;99792.69;4984153;28;105839;-64
2021/07/29 05:18:31;;;;;;;12.70;5.85;;;;;;;17.55;80.71;99794.19;4984679;28;105912;-63
2021/07/29 05:21:04;;;;;;;11.95;6.97;;;;;;;17.68;80.28;99800.44;4984701;28;106039;-63
2021/07/29 05:23:29;;;;;;;10.85;6.55;;;;;;;17.78;79.95;99798.03;4985360;28;106095;-64
2021/07/29 05:25:54;;;;;;;9.27;5.35;;;;;;;17.91;80.13;99800.56;4984873;28;106230;-64
2021/07/29 05:28:20;;;;;;;7.80;6.07;;;;;;;18.01;79.58;99801.91;4984948;28;106081;-64
2021/07/29 05:30:45;;;;;;;11.80;6.38;;;;;;;18.11;79.19;99804.84;4984777;28;106001;-64
2021/07/29 05:33:10;;;;;;;7.47;5.97;;;;;;;18.21;79.06;99797.03;4985733;28;105747;-64
2021/07/29 05:35:36;;;;;;;9.25;5.93;;;;;;;18.34;79.07;99800.59;4984735;28;106173;-64
2021/07/29 05:38:01;;;;;;;8.98;5.75;;;;;;;18.42;78.47;99797.56;4984580;28;105984;-64
2021/07/29 05:40:27;;;;;;;8.27;5.95;;;;;;;18.52;78.36;99800.53;4984208;28;106459;-64
2021/07/29 05:42:52;;;;;;;8.98;5.75;;;;;;;18.63;78.26;99807.00;4985250;28;105970;-64
2021/07/29 05:45:17;;;;;;;11.30;6.65;;;;;;;18.78;78.15;99801.94;4982904;28;107484;-64
2021/07/29 05:47:43;;;;;;;8.70;5.95;;;;;;;18.91;77.77;99800.09;4984422;28;105789;-64
2021/07/29 05:50:09;;;;;;;8.50;6.00;;;;;;;19.03;77.43;99803.63;4984335;28;105941;-64
2021/07/29 05:52:34;;;;;;;7.90;5.93;;;;;;;19.13;76.85;99808.41;4976328;28;106165;-63
2021/07/29 05:54:59;;;;;;;10.30;6.32;;;;;;;19.25;76.84;99806.53;4971472;28;106324;-63
2021/07/29 05:57:25;;;;;;;7.43;5.93;;;;;;;19.30;76.41;99808.53;4954766;28;112683;-63
2021/07/29 05:59:50;;;;;;;10.27;6.57;;;;;;;19.39;76.01;99808.97;4964260;28;106207;-64
2021/07/29 06:02:15;;;;;;;8.65;6.00;;;;;;;19.47;75.77;99808.59;4970946;28;106508;-64
2021/07/29 06:04:41;;;;;;;7.75;5.90;;;;;;;19.54;75.13;99809.28;4971270;28;105922;-64
2021/07/29 06:07:06;;;;;;;12.00;7.45;;;;;;;19.68;75.51;99806.31;4970524;28;106674;-66
2021/07/29 06:09:31;;;;;;;9.05;6.50;;;;;;;19.74;74.51;99808.88;4970821;28;105973;-64
2021/07/29 06:11:57;;;;;;;11.40;6.15;;;;;;;19.79;74.92;99810.84;4971624;28;105985;-64
2021/07/29 06:14:23;;;;;;;12.82;6.22;;;;;;;19.88;74.42;99804.03;4971089;28;106127;-65
2021/07/29 06:16:48;;;;;;;12.02;6.13;;;;;;;19.99;74.43;99810.47;4970301;28;106068;-65
2021/07/29 06:19:18;;;;;;;11.27;6.32;;;;;;;20.07;73.68;99804.66;4971051;28;106028;-65
2021/07/29 06:21:43;;;;;;;12.45;6.28;;;;;;;20.07;73.66;99809.25;4971024;28;106141;-65
2021/07/29 06:24:09;;;;;;;11.02;6.25;;;;;;;20.15;73.17;99802.63;4971101;28;106005;-65
2021/07/29 06:26:34;;;;;;;8.65;6.15;;;;;;;20.21;73.08;99807.06;4970662;28;105976;-65
2021/07/29 06:29:00;;;;;;;10.15;5.93;;;;;;;20.34;73.07;99808.63;4970090;28;105750;-65
2021/07/29 06:31:26;;;;;;;8.98;5.78;;;;;;;20.50;73.19;99809.72;4971637;28;105937;-66
2021/07/29 06:33:52;;;;;;;17.15;6.43;;;;;;;20.74;72.17;99815.84;4970527;28;106158;-66
2021/07/29 06:36:17;;;;;;;9.48;5.70;;;;;;;20.94;71.83;99813.44;4970579;28;106037;-66
2021/07/29 06:38:43;;;;;;;8.57;5.57;;;;;;;21.16;71.68;99809.97;4970105;28;106104;-66
2021/07/29 06:41:08;;;;;;;7.80;5.60;;;;;;;21.27;70.58;99813.63;4970245;28;106187;-66
2021/07/29 06:43:35;;;;;;;8.55;5.22;;;;;;;21.28;70.57;99816.09;4970353;28;106140;-66
2021/07/29 06:46:07;;;;;;;8.45;6.07;;;;;;;21.33;70.34;99812.59;4969956;28;106057;-67
2021/07/29 06:48:34;;;;;;;8.15;6.03;;;;;;;21.34;70.00;99818.84;4970246;28;106347;-67
2021/07/29 06:51:06;;;;;;;9.18;5.03;;;;;;;21.46;69.75;99819.56;4971153;28;106241;-66
2021/07/29 06:53:35;;;;;;;9.27;6.00;;;;;;;21.51;69.39;99819.59;4970464;28;106246;-66
2021/07/29 06:56:01;;;;;;;7.38;5.38;;;;;;;21.56;69.17;99821.59;4970268;28;106052;-66
2021/07/29 06:58:26;;;;;;;10.15;5.47;;;;;;;21.63;69.14;99806.78;4969652;28;106027;-66
2021/07/29 07:00:52;;;;;;;8.95;5.88;;;;;;;21.79;68.81;99799.66;4970996;28;106059;-67
2021/07/29 07:03:17;;;;;;;8.07;5.32;;;;;;;21.96;68.67;99796.03;4969420;28;106188;-66
2021/07/29 07:05:45;;;;;;;6.20;4.85;;;;;;;22.20;68.30;99804.69;4969654;28;106630;-68
2021/07/29 07:08:14;;;;;;;6.18;4.25;;;;;;;22.38;67.57;99800.00;4969282;28;105864;-67
2021/07/29 07:10:40;;;;;;;5.35;3.90;;;;;;;22.59;66.56;99796.34;4970649;28;105992;-67
2021/07/29 07:13:06;;;;;;;6.13;4.07;;;;;;;22.81;65.93;99792.69;4970133;28;106134;-67
2021/07/29 07:15:32;;;;;;;7.07;4.38;;;;;;;23.04;64.88;99799.63;4969372;28;106005;-67
2021/07/29 07:17:57;;;;;;;5.57;3.95;;;;;;;23.28;63.85;99802.78;4969058;28;106082;-67
2021/07/29 07:20:25;;;;;;;5.65;3.90;;;;;;;23.32;62.48;99793.03;4970576;28;106074;-66
2021/07/29 07:22:52;;;;;;;6.30;4.10;;;;;;;23.44;61.56;99792.00;4969589;28;106231;-67
2021/07/29 07:25:18;;;;;;;9.65;3.97;;;;;;;23.54;60.85;99789.31;4969524;28;106136;-66
2021/07/29 07:27:43;;;;;;;7.47;6.50;;;;;;;23.63;60.76;99784.19;4969950;28;106028;-66
2021/07/29 07:30:09;;;;;;;5.18;3.72;;;;;;;23.79;59.96;99783.13;4970448;28;106116;-66
2021/07/29 07:32:35;;;;;;;5.75;3.72;;;;;;;23.88;59.00;99791.63;4970654;28;106230;-65
2021/07/29 07:35:00;;;;;;;5.78;3.45;;;;;;;23.95;58.86;99770.41;4969224;28;106077;-66
2021/07/29 07:37:26;;;;;;;4.65;3.22;;;;;;;24.12;57.83;99772.06;4969402;28;106255;-66
2021/07/29 07:39:51;;;;;;;5.35;4.15;;;;;;;24.36;57.97;99776.97;4968988;28;106130;-65
2021/07/29 07:42:16;;;;;;;5.45;3.53;;;;;;;24.60;57.28;99772.59;4969165;28;105871;-66
2021/07/29 07:44:42;;;;;;;6.88;3.67;;;;;;;24.82;56.72;99764.19;4968237;28;106081;-65
2021/07/29 07:47:07;;;;;;;6.75;3.60;;;;;;;25.04;55.62;99759.47;4969342;28;105922;-65
2021/07/29 07:49:33;;;;;;;6.68;3.72;;;;;;;25.21;55.00;99765.44;4969948;28;105652;-65
2021/07/29 07:51:59;;;;;;;4.07;3.40;;;;;;;25.14;52.87;99762.19;4969191;28;106224;-66
2021/07/29 07:54:25;;;;;;;12.10;4.05;;;;;;;25.00;53.43;99765.50;4969151;28;105805;-65
2021/07/29 07:56:50;;;;;;;5.53;3.38;;;;;;;25.13;53.29;99764.09;4968763;28;112890;-65
2021/07/29 07:59:15;;;;;;;6.07;4.10;;;;;;;25.32;52.60;99772.47;4969795;28;105975;-65
2021/07/29 08:01:41;;;;;;;4.72;3.38;;;;;;;25.65;52.50;99764.69;4951075;28;106187;-65
2021/07/29 08:04:07;;;;;;;5.43;3.53;;;;;;;26.15;51.78;99756.50;4949614;28;105934;-65
2021/07/29 08:06:32;;;;;;;6.28;3.67;;;;;;;26.51;50.80;99766.31;4949560;28;105830;-65
2021/07/29 08:08:58;;;;;;;6.10;3.42;;;;;;;26.77;49.04;99771.56;4950530;28;105998;-66
2021/07/29 08:11:23;;;;;;;5.22;3.65;;;;;;;26.66;47.87;99768.88;4949790;28;106661;-67
2021/07/29 08:13:48;;;;;;;5.57;4.10;;;;;;;26.43;47.06;99766.94;4948466;28;108746;-66
2021/07/29 08:16:14;;;;;;;5.40;3.75;;;;;;;26.27;47.23;99767.06;4962826;28;106311;-68
2021/07/29 08:18:39;;;;;;;7.43;4.45;;;;;;;26.33;47.63;99776.03;4969539;28;106172;-67
2021/07/29 08:21:09;;;;;;;7.38;4.28;;;;;;;26.34;47.26;99761.25;4969322;28;106219;-66
2021/07/29 08:23:34;;;;;;;6.65;4.43;;;;;;;26.39;47.37;99761.22;4968539;28;105980;-65
2021/07/29 08:26:00;;;;;;;5.28;3.95;;;;;;;26.65;46.45;99761.78;4968901;28;105961;-66
2021/07/29 08:28:25;;;;;;;6.38;4.60;;;;;;;26.74;46.24;99761.22;4969122;28;105946;-66
2021/07/29 08:30:51;;;;;;;8.20;4.10;;;;;;;26.74;46.04;99761.22;4968971;28;106181;-66
2021/07/29 08:33:17;;;;;;;6.88;3.67;;;;;;;26.64;46.32;99760.19;4968063;28;107864;-68
2021/07/29 08:35:42;;;;;;;8.10;4.18;;;;;;;26.60;45.65;99759.13;4968487;28;105890;-66
2021/07/29 08:38:08;;;;;;;5.38;4.28;;;;;;;26.62;45.90;99756.91;4969032;28;105993;-66
2021/07/29 08:40:34;;;;;;;5.32;3.92;;;;;;;26.83;45.78;99757.56;4968066;28;106167;-66
2021/07/29 08:43:00;;;;;;;5.90;4.25;;;;;;;27.03;45.06;99742.84;4968320;28;106195;-65
2021/07/29 08:45:26;;;;;;;7.15;3.85;;;;;;;27.26;44.68;99740.38;4967918;28;106028;-65
2021/07/29 08:47:55;;;;;;;5.78;4.28;;;;;;;27.60;44.42;99742.16;4968525;28;106295;-64
2021/07/29 08:50:21;;;;;;;5.22;3.90;;;;;;;27.54;43.20;99746.06;4967942;28;106219;-66
2021/07/29 08:52:46;;;;;;;6.18;3.67;;;;;;;27.41;43.64;99741.34;4968040;28;106865;-67
2021/07/29 08:55:11;;;;;;;6.00;3.35;;;;;;;27.43;43.47;99750.06;4967885;28;108069;-71
2021/07/29 08:57:39;;;;;;;4.88;3.90;;;;;;;27.42;43.23;99754.72;4969163;28;106213;-67
2021/07/29 09:00:09;;;;;;;5.80;3.70;;;;;;;27.47;42.45;99765.56;4968089;28;106242;-66
2021/07/29 09:02:34;;;;;;;;;;;;;;;27.11;42.46;99755.06;4968204;28;105892;-67
2021/07/29 09:05:12;;;;;;;5.55;3.95;;;;;;;26.99;43.10;99752.72;4968075;28;106064;-68
2021/07/29 09:07:39;;;;;;;4.40;3.35;;;;;;;27.19;43.48;99751.69;4968701;28;106112;-66
2021/07/29 09:10:19;;;;;;;7.55;4.45;;;;;;;27.32;42.68;99755.59;4967511;28;106405;-68
2021/07/29 09:12:44;;;;;;;5.35;4.10;;;;;;;27.28;42.28;99760.03;4968137;28;106937;-65
2021/07/29 09:15:20;;;;;;;5.00;3.65;;;;;;;27.21;42.37;99737.72;4967661;28;105764;-67
2021/07/29 09:17:46;;;;;;;5.25;3.80;;;;;;;27.28;41.99;99749.09;4968103;28;106157;-65
2021/07/29 09:20:19;;;;;;;4.60;4.00;;;;;;;27.19;41.97;99742.69;4967787;28;106055;-65
2021/07/29 09:22:47;;;;;;;13.40;4.07;;;;;;;27.09;41.69;99740.06;4967748;28;106060;-65
2021/07/29 09:25:13;;;;;;;7.13;3.80;;;;;;;27.29;41.93;99745.25;4967633;28;106066;-66
2021/07/29 09:27:38;;;;;;;7.07;4.10;;;;;;;27.27;40.95;99739.28;4970102;28;105923;-66
2021/07/29 09:30:10;;;;;;;5.00;3.75;;;;;;;27.31;41.01;99747.69;4970592;28;106306;-65
2021/07/29 09:32:52;;;;;;;5.95;4.00;;;;;;;27.32;41.72;99736.47;4970444;28;105927;-67
2021/07/29 09:35:45;;;;;;;6.05;3.83;;;;;;;27.79;41.11;99731.22;4970869;28;105961;-65
2021/07/29 09:38:31;;;;;;;8.77;4.50;;;;;;;28.36;40.91;99722.94;4971367;28;106195;-65
2021/07/29 09:41:27;;;;;;;5.22;3.70;;;;;;;28.53;39.34;99721.56;4970334;28;106284;-65
2021/07/29 09:43:54;;;;;;;5.85;3.83;;;;;;;28.30;38.33;99707.69;4970395;28;106784;-65
2021/07/29 09:46:20;;;;;;;3.90;3.20;;;;;;;28.18;38.37;99715.56;4970005;28;105875;-66
2021/07/29 09:48:46;;;;;;;5.00;3.45;;;;;;;28.10;38.99;99719.81;4970814;28;105803;-65
2021/07/29 09:51:14;;;;;;;6.82;3.58;;;;;;;27.80;38.76;99721.06;4970154;28;106084;-65
2021/07/29 09:53:39;;;;;;;4.07;3.20;;;;;;;27.33;39.25;99718.97;4970570;28;107176;-65
2021/07/29 09:56:09;;;;;;;7.35;3.88;;;;;;;27.22;40.15;99733.06;4970109;28;106081;-65
2021/07/29 09:58:35;;;;;;;;;;;;;;;27.19;40.67;99724.34;4971206;28;106077;-65
2021/07/29 10:01:01;;;;;;;7.88;4.40;;;;;;;27.17;40.65;99725.75;4970511;28;106213;-65
2021/07/29 10:03:27;;;;;;;7.15;4.38;;;;;;;27.14;41.07;99727.13;4970840;28;106119;-65
2021/07/29 10:06:02;;;;;;;6.75;3.90;;;;;;;27.14;41.25;99720.88;4969926;28;106022;-65
2021/07/29 10:08:37;;;;;;;5.40;3.75;;;;;;;27.16;41.28;99726.84;4971507;28;105988;-65
2021/07/29 10:11:11;;;;;;;6.28;3.92;;;;;;;27.12;41.53;99729.34;4970181;28;106029;-64
2021/07/29 10:13:39;;;;;;;6.05;3.67;;;;;;;26.94;41.26;99717.28;4970237;28;106790;-65
2021/07/29 10:16:05;;;;;;;6.60;3.70;;;;;;;26.76;41.33;99718.81;4969527;28;106052;-65
2021/07/29 10:18:52;;;;;;;6.90;4.10;;;;;;;26.55;41.51;99720.13;4970483;28;105902;-66
2021/07/29 10:21:30;;;;;;;5.20;3.40;;;;;;;26.40;41.95;99732.00;4970191;28;106278;-65
2021/07/29 10:23:58;;;;;;;5.95;3.42;;;;;;;26.30;41.74;99736.47;4970032;28;106130;-67
2021/07/29 10:26:24;;;;;;;6.22;3.40;;;;;;;26.21;40.55;99732.72;4970239;28;106029;-66
2021/07/29 10:28:50;;;;;;;4.55;3.00;;;;;;;26.26;40.66;99726.38;4971218;28;106108;-67
2021/07/29 10:31:19;;;;;;;4.88;3.15;;;;;;;26.42;40.29;99737.97;4969565;28;106266;-66
2021/07/29 10:33:48;;;;;;;4.63;3.28;;;;;;;26.83;39.83;99732.13;4969773;28;106133;-66
2021/07/29 10:36:45;;;;;;;5.03;3.42;;;;;;;27.59;39.43;99735.06;4969300;28;105973;-65
2021/07/29 10:39:11;;;;;;;6.25;3.17;;;;;;;28.48;37.49;99732.59;4970079;28;106043;-65
2021/07/29 10:41:44;;;;;;;6.95;3.55;;;;;;;29.24;36.40;99737.75;4969753;28;106127;-64
2021/07/29 10:44:33;;;;;;;4.07;2.88;;;;;;;29.97;35.22;99728.75;4969491;28;106538;-65
2021/07/29 10:47:06;;;;;;;5.97;3.20;;;;;;;30.30;33.98;99726.56;4969380;28;106099;-65
2021/07/29 10:49:44;;;;;;;4.38;2.88;;;;;;;30.16;33.66;99725.81;4970023;28;106037;-65
2021/07/29 10:52:10;;;;;;;6.00;3.30;;;;;;;30.07;32.79;99722.22;4969661;28;106085;-64
2021/07/29 10:54:37;;;;;;;9.25;3.30;;;;;;;30.12;32.93;99725.63;4969484;28;106175;-65
2021/07/29 10:57:04;;;;;;;12.88;3.25;;;;;;;30.14;32.73;99717.91;4954743;28;106497;-64
2021/07/29 10:59:32;;;;;;;4.75;3.30;;;;;;;30.05;32.57;99731.56;4957296;28;106593;-64
2021/07/29 11:02:00;;;;;;;4.97;3.00;;;;;;;29.70;32.01;99720.31;4968086;28;106400;-65
2021/07/29 11:04:28;;;;;;;5.07;3.00;;;;;;;29.59;33.18;99724.38;4967876;28;106291;-65
2021/07/29 11:07:04;;;;;;;5.50;3.33;;;;;;;29.79;32.47;99734.09;4968877;28;106487;-64
2021/07/29 11:09:31;;;;;;;4.00;2.80;;;;;;;29.79;32.41;99723.09;4968668;28;106035;-65
2021/07/29 11:11:58;;;;;;;6.78;2.78;;;;;;;29.97;31.85;99718.59;4968028;28;106238;-64
2021/07/29 11:14:26;;;;;;;5.45;3.15;;;;;;;29.84;31.83;99735.88;4968344;28;105987;-65
2021/07/29 11:16:55;;;;;;;5.63;3.30;;;;;;;29.67;31.53;99726.38;4967706;28;106673;-65
2021/07/29 11:19:20;;;;;;;6.28;3.08;;;;;;;29.34;32.43;99729.31;4968859;28;106156;-65
2021/07/29 11:22:01;;;;;;;8.43;3.47;;;;;;;29.18;32.25;99731.56;4967536;28;106021;-65
2021/07/29 11:24:27;;;;;;;5.68;3.08;;;;;;;29.31;31.63;99735.41;4968006;28;106110;-65
2021/07/29 11:26:52;;;;;;;5.50;3.00;;;;;;;29.50;31.61;99737.22;4967229;28;112830;-65
2021/07/29 11:29:17;;;;;;;6.30;3.25;;;;;;;29.51;31.65;99733.34;4968708;28;106480;-65
2021/07/29 11:31:43;;;;;;;3.85;2.80;;;;;;;29.57;31.54;99737.63;4967323;28;106142;-65
2021/07/29 11:34:09;;;;;;;3.42;2.95;;;;;;;29.59;31.93;99720.84;4967205;28;106875;-65
2021/07/29 11:36:35;;;;;;;4.47;3.45;;;;;;;29.87;31.60;99710.59;4967100;28;106231;-65
2021/07/29 11:39:06;;;;;;;5.63;3.00;;;;;;;30.37;31.59;99709.63;4968388;28;106102;-65
2021/07/29 11:41:56;;;;;;;4.22;2.75;;;;;;;30.53;30.43;99713.63;4967193;28;106205;-65
2021/07/29 11:44:22;;;;;;;4.78;3.00;;;;;;;30.13;31.05;99718.22;4966799;28;106509;-65
2021/07/29 11:46:58;;;;;;;7.28;3.05;;;;;;;29.99;31.10;99716.34;4966749;28;105877;-65
2021/07/29 11:49:24;;;;;;;3.72;2.90;;;;;;;30.10;30.68;99711.41;4967120;28;105898;-65
2021/07/29 11:52:05;;;;;;;5.35;3.00;;;;;;;30.10;30.75;99719.66;4966250;28;106716;-65
2021/07/29 11:54:31;;;;;;;3.92;2.95;;;;;;;30.04;30.75;99721.72;4966415;28;106475;-64
2021/07/29 11:57:00;;;;;;;5.18;2.72;;;;;;;29.85;30.08;99732.06;4966504;28;106032;-65
2021/07/29 11:59:33;;;;;;;4.73;3.33;;;;;;;29.67;30.55;99720.09;4967778;28;106108;-65
2021/07/29 12:01:59;;;;;;;5.50;3.15;;;;;;;29.85;30.65;99716.41;4967495;28;105968;-65
2021/07/29 12:04:26;;;;;;;5.72;3.50;;;;;;;29.62;30.20;99714.72;4967283;28;106043;-65
2021/07/29 12:06:52;;;;;;;4.25;3.40;;;;;;;29.36;30.82;99709.81;4966698;28;106378;-64
2021/07/29 12:09:18;;;;;;;5.75;3.15;;;;;;;29.24;30.96;99709.47;4967723;28;106147;-64
2021/07/29 12:11:43;;;;;;;4.25;3.00;;;;;;;29.26;31.33;99710.03;4966685;28;106206;-64
2021/07/29 12:14:13;;;;;;;7.68;3.33;;;;;;;29.37;30.68;99711.44;4967145;28;106760;-64
2021/07/29 12:16:43;;;;;;;4.13;2.90;;;;;;;29.41;30.55;99709.69;4966279;28;106460;-65
2021/07/29 12:19:08;;;;;;;3.85;2.65;;;;;;;29.23;30.00;99711.44;4967808;28;106067;-65
2021/07/29 12:21:33;;;;;;;4.30;3.10;;;;;;;28.86;30.49;99713.28;4964313;28;106202;-65
2021/07/29 12:23:59;;;;;;;6.78;3.30;;;;;;;28.46;30.73;99704.69;4947903;28;106217;-64
2021/07/29 12:26:24;;;;;;;6.72;3.00;;;;;;;28.16;31.28;99704.94;4948907;28;105879;-64
2021/07/29 12:28:49;;;;;;;5.72;3.33;;;;;;;27.97;31.84;99702.19;4949726;28;105923;-64
2021/07/29 12:31:22;;;;;;;4.75;2.75;;;;;;;28.16;31.36;99695.91;4949070;28;106150;-64
2021/07/29 12:33:54;;;;;;;6.72;3.20;;;;;;;28.63;31.69;99699.47;4949041;28;106762;-64
2021/07/29 12:36:21;;;;;;;6.45;2.78;;;;;;;29.05;30.74;99704.94;4948586;28;106353;-64
2021/07/29 12:39:00;;;;;;;6.40;2.80;;;;;;;29.51;30.59;99697.66;4949272;28;106492;-64
2021/07/29 12:41:29;;;;;;;4.63;3.20;;;;;;;29.94;29.58;99686.25;4948040;28;106233;-64
2021/07/29 12:44:09;;;;;;;5.50;3.17;;;;;;;29.82;28.45;99685.97;4948051;28;106622;-64
2021/07/29 12:46:34;;;;;;;6.65;3.17;;;;;;;29.86;28.44;99684.28;4965382;28;105855;-64
2021/07/29 12:49:00;;;;;;;5.28;3.03;;;;;;;30.15;28.05;99691.25;4968976;28;105977;-65
2021/07/29 12:51:47;;;;;;;8.60;2.95;;;;;;;30.57;27.63;99680.03;4967772;28;106194;-64
2021/07/29 12:54:18;;;;;;;5.47;3.10;;;;;;;30.38;26.54;99679.06;4967772;28;106675;-64
2021/07/29 12:56:45;;;;;;;5.45;2.78;;;;;;;30.25;26.41;99673.69;4965865;28;106057;-64
2021/07/29 12:59:11;;;;;;;5.45;3.47;;;;;;;30.14;26.15;99673.13;4968878;28;106117;-63
2021/07/29 13:01:38;;;;;;;10.50;5.35;;;;;;;29.95;26.38;99673.34;4968722;28;106480;-67
2021/07/29 13:04:04;;;;;;;4.38;2.55;;;;;;;29.96;26.10;99664.78;4970672;28;106012;-63
2021/07/29 13:06:30;;;;;;;4.20;2.47;;;;;;;29.82;26.00;99673.06;4968168;28;106132;-63
2021/07/29 13:08:56;;;;;;;6.70;2.40;;;;;;;29.87;26.19;99653.75;4968898;28;106354;-63
2021/07/29 13:11:22;;;;;;;4.25;2.78;;;;;;;29.81;25.81;99655.00;4966789;28;106695;-62
2021/07/29 13:13:48;;;;;;;4.63;2.80;;;;;;;29.93;25.59;99662.66;4967637;28;106624;-63
2021/07/29 13:16:14;;;;;;;9.43;3.03;;;;;;;30.17;25.41;99664.28;4968507;28;106496;-62
2021/07/29 13:18:39;;;;;;;6.40;2.40;;;;;;;30.35;25.29;99656.94;4969774;28;106325;-63
2021/07/29 13:21:05;;;;;;;8.25;4.50;;;;;;;30.42;25.16;99667.47;4970975;28;106691;-62
2021/07/29 13:23:31;;;;;;;5.63;3.00;;;;;;;30.60;24.88;99669.19;4971309;28;106116;-64
2021/07/29 13:25:57;;;;;;;5.97;3.67;;;;;;;30.39;24.43;99655.19;4970521;28;106389;-62
2021/07/29 13:28:24;;;;;;;7.10;3.75;;;;;;;30.42;24.62;99657.28;4971432;28;106314;-63
2021/07/29 13:30:49;;;;;;;8.95;4.13;;;;;;;30.47;24.67;99659.09;4970747;28;106289;-63
2021/07/29 13:33:16;;;;;;;4.55;2.83;;;;;;;30.60;24.70;99662.88;4970825;28;106546;-63
2021/07/29 13:35:42;;;;;;;5.35;3.15;;;;;;;30.45;24.68;99651.19;4970716;28;105835;-62
2021/07/29 13:38:07;;;;;;;5.85;2.40;;;;;;;30.27;25.04;99650.25;4971630;28;105966;-63
2021/07/29 13:40:33;;;;;;;4.50;2.60;;;;;;;30.29;25.06;99645.28;4970505;28;106223;-63
2021/07/29 13:43:00;;;;;;;8.95;3.60;;;;;;;30.17;25.54;99645.06;4970583;28;106696;-63
2021/07/29 13:45:26;;;;;;;5.05;2.50;;;;;;;30.16;25.39;99646.97;4970846;28;106026;-63
2021/07/29 13:47:56;;;;;;;4.32;2.55;;;;;;;30.07;25.27;99646.13;4971576;28;105993;-62
2021/07/29 13:50:23;;;;;;;6.88;2.60;;;;;;;29.90;25.23;99641.34;4970654;28;106585;-64
2021/07/29 13:52:49;;;;;;;7.43;3.50;;;;;;;29.91;25.92;99642.97;4965441;28;106773;-64
2021/07/29 13:55:15;;;;;;;4.70;2.90;;;;;;;30.04;26.03;99641.25;4960595;28;106250;-66
2021/07/29 13:57:41;;;;;;;3.40;2.58;;;;;;;30.19;26.20;99638.09;4964155;28;107023;-65
2021/07/29 14:00:11;;;;;;;4.55;2.67;;;;;;;30.19;26.15;99634.56;4972181;28;106073;-64
2021/07/29 14:02:37;;;;;;;5.72;2.85;;;;;;;30.36;26.03;99642.09;4984144;28;106458;-63
2021/07/29 14:05:04;;;;;;;5.78;2.95;;;;;;;30.64;25.98;99642.69;4979362;28;106136;-63
2021/07/29 14:07:30;;;;;;;4.40;2.38;;;;;;;30.72;25.97;99635.59;4977928;28;106495;-63
2021/07/29 14:09:55;;;;;;;4.05;3.05;;;;;;;30.53;25.49;99631.16;4987061;28;106263;-63
2021/07/29 14:12:24;;;;;;;4.82;2.83;;;;;;;30.18;26.11;99633.75;4957327;28;106014;-64
2021/07/29 14:14:51;;;;;;;5.82;3.00;;;;;;;30.19;26.28;99632.59;4982430;28;106140;-64
2021/07/29 14:17:23;;;;;;;4.28;3.00;;;;;;;30.27;26.26;99641.22;4981792;28;106045;-64
2021/07/29 14:25:07;;;;;;;4.30;2.85;;;;;;;30.52;26.18;99632.31;4979413;28;105981;-63
2021/07/29 14:27:33;;;;;;;4.57;2.80;;;;;;;30.11;25.47;99627.88;4983865;28;105990;-64
2021/07/29 14:29:59;;;;;;;5.57;3.10;;;;;;;29.83;25.82;99624.47;4973369;28;106119;-63
2021/07/29 14:32:24;;;;;;;3.78;2.67;;;;;;;29.90;26.15;99627.63;4985718;28;106785;-64
2021/07/29 14:34:49;;;;;;;4.25;2.80;;;;;;;29.87;25.89;99625.50;4976760;28;107423;-64
2021/07/29 14:37:15;;;;;;;5.07;2.50;;;;;;;29.68;25.94;99625.66;4979176;28;105747;-64
2021/07/29 14:39:40;;;;;;;5.43;2.60;;;;;;;29.64;25.74;99616.44;4983689;28;106121;-65
2021/07/29 14:42:05;;;;;;;5.03;3.08;;;;;;;29.58;26.28;99618.50;4972045;28;105878;-63
2021/07/29 14:44:36;;;;;;;5.60;2.80;;;;;;;29.50;26.46;99628.28;4983731;28;105930;-63
2021/07/29 14:49:45;;;;;;;3.60;2.05;;;;;;;28.57;27.26;99615.72;4974620;28;106101;-63
2021/07/29 14:52:11;;;;;;;5.90;2.15;;;;;;;28.17;27.77;99620.84;4985555;28;106033;-64
2021/07/29 14:54:36;;;;;;;3.97;2.42;;;;;;;27.80;28.05;99622.56;4975022;28;106187;-64
2021/07/29 14:57:09;;;;;;;4.78;2.35;;;;;;;27.63;28.57;99623.13;4981197;28;105915;-64
2021/07/29 15:19:22;;;;;;;3.40;1.90;;;;;;;27.38;29.33;99597.81;4986911;28;106043;-63
2021/07/29 16:08:03;;;;;;;4.22;2.60;;;;;;;26.43;31.17;99573.06;4963792;28;106039;-63
2021/07/29 16:10:32;;;;;;;5.32;2.35;;;;;;;26.43;31.01;99576.59;4968182;28;106768;-63
2021/07/29 16:12:58;;;;;;;5.50;3.13;;;;;;;26.41;31.43;99567.06;4968693;28;105898;-63
2021/07/29 16:15:24;;;;;;;3.58;2.03;;;;;;;26.39;31.23;99561.09;4968256;28;106114;-65
2021/07/29 16:17:49;;;;;;;5.13;2.17;;;;;;;26.31;31.35;99562.53;4968037;28;106068;-65
2021/07/29 16:20:14;;;;;;;4.45;2.63;;;;;;;26.19;31.56;99568.41;4967734;28;120229;-65
2021/07/29 16:22:40;;;;;;;6.40;2.63;;;;;;;26.16;31.90;99566.22;4967474;28;106192;-65
2021/07/29 16:25:05;;;;;;;4.40;2.35;;;;;;;26.15;32.05;99559.19;4964779;28;106166;-65
2021/07/29 16:27:30;;;;;;;4.03;2.13;;;;;;;26.22;31.96;99567.81;4966420;28;106046;-65
2021/07/29 16:29:56;;;;;;;4.85;2.53;;;;;;;26.17;32.14;99563.22;4965963;28;106966;-66
2021/07/29 16:32:21;;;;;;;4.80;2.38;;;;;;;26.17;31.95;99568.66;4967124;28;106044;-64
2021/07/29 16:34:46;;;;;;;4.65;2.40;;;;;;;26.07;31.90;99565.28;4967117;28;106457;-66
2021/07/29 16:37:12;;;;;;;3.40;2.40;;;;;;;25.99;31.94;99553.03;4965732;28;106725;-65
2021/07/29 16:39:39;;;;;;;5.68;3.08;;;;;;;25.91;32.38;99568.09;4965876;28;106012;-66
2021/07/29 16:42:06;;;;;;;3.88;2.65;;;;;;;25.79;32.34;99557.59;4967212;28;106089;-65
2021/07/29 16:44:35;;;;;;;4.30;2.47;;;;;;;25.66;32.42;99561.78;4967043;28;106322;-63
2021/07/29 16:47:01;;;;;;;5.07;2.25;;;;;;;25.55;32.80;99571.16;4966569;28;106462;-63
2021/07/29 16:49:27;;;;;;;4.82;2.65;;;;;;;25.46;32.97;99559.22;4965889;28;106182;-63
2021/07/29 16:51:52;;;;;;;7.60;2.53;;;;;;;25.43;33.08;99559.81;4966782;28;106080;-63
2021/07/29 16:54:18;;;;;;;4.45;2.75;;;;;;;25.38;33.33;99559.84;4966413;28;106218;-64
2021/07/29 16:56:43;;;;;;;5.13;2.60;;;;;;;25.37;33.44;99561.75;4966511;28;106148;-64
2021/07/29 16:59:10;;;;;;;6.10;2.83;;;;;;;25.36;33.43;99551.09;4966465;28;106110;-64
2021/07/29 17:01:37;;;;;;;9.73;6.28;;;;;;;25.36;33.63;99560.13;4966795;28;106069;-64
2021/07/29 17:04:02;;;;;;;6.78;2.72;;;;;;;25.35;33.48;99561.22;4966938;28;106158;-63
2021/07/29 17:06:27;;;;;;;10.25;3.03;;;;;;;25.33;33.63;99561.50;4966260;28;106081;-63
2021/07/29 17:08:53;;;;;;;4.32;2.45;;;;;;;25.29;34.05;99559.59;4966167;28;116180;-64
2021/07/29 17:11:18;;;;;;;5.53;2.50;;;;;;;25.27;33.78;99561.78;4963279;28;106012;-64
2021/07/29 17:13:44;;;;;;;5.47;2.45;;;;;;;25.22;33.85;99557.19;4954463;28;106150;-64
2021/07/29 17:16:09;;;;;;;3.53;2.25;;;;;;;25.19;34.01;99565.91;4952250;28;106118;-64
2021/07/29 17:18:35;;;;;;;3.70;2.05;;;;;;;25.16;34.24;99555.59;4956401;28;106725;-64
2021/07/29 17:21:01;;;;;;;4.38;2.40;;;;;;;25.11;34.54;99556.44;4966997;28;106066;-64